Etusivu
METAR-TAF:

METAR-TAF

Lentoasemat :

Albenga, Italia

Leveyspiiri: 44-03N, Pituuspiiri: 008-07E, korkeus merenpinnasta: 45 m

Tämänhetkinen sää

Tämä raportti tehtiin 13 tuntia ja 41 minuuttia sitten, kello 16.50 UTC
Tuuli 5 kn etelästä
Lämpötila 12°C
Kosteus 67%
Ilmanpaine 1024 hPa
Näkyvyys 10 km tai enemmän
Hajonneita pilviä 3500 ft:n korkeudessa

METAR: LIMG 181650Z 19005KT 9999 BKN035 12/06 Q1024

Aika: 07:31 (06:31 UTC)


TAF: puuttuu

Säähavainnot ja -ennusteet yli 4000 lentoasemalta (METAR- ja TAF-raportit).

Käytössä olevat sääasemat on merkitty karttaan keltaisilla ja punaisilla pisteillä.

Aseta hiiri pisteen päälle nähdäksesi sääaseman nimen.

Klikkaa sitten nähdäksesi säähavainnot ja -ennusteet.

Kartan vaihtaminen: klikkaa mustalla rastilla varustettuja vihreitä pisteitä, niin voit zoomata sisään; viivalla varustettua vihreää pistettä, niin voit zoomata ulos tai vihreitä nuolia, niin pääset viereisille kartoille.


METAR-TAF: